sensor_id;sensor_type;location;lat;lon;timestamp;temperature;humidity
2202;DHT22;1107;48.654;9.250;2023-06-10T00:01:39;18.60;99.90
2202;DHT22;1107;48.654;9.250;2023-06-10T00:04:07;18.50;99.90
2202;DHT22;1107;48.654;9.250;2023-06-10T00:06:34;18.50;99.90
2202;DHT22;1107;48.654;9.250;2023-06-10T00:09:03;18.40;99.90
2202;DHT22;1107;48.654;9.250;2023-06-10T00:11:31;18.30;99.90
2202;DHT22;1107;48.654;9.250;2023-06-10T00:13:59;18.20;99.90
2202;DHT22;1107;48.654;9.250;2023-06-10T00:16:26;18.30;99.90
2202;DHT22;1107;48.654;9.250;2023-06-10T00:18:54;18.20;99.90
2202;DHT22;1107;48.654;9.250;2023-06-10T00:21:26;18.20;99.90
2202;DHT22;1107;48.654;9.250;2023-06-10T00:23:53;18.20;99.90
2202;DHT22;1107;48.654;9.250;2023-06-10T00:26:21;18.20;99.90
2202;DHT22;1107;48.654;9.250;2023-06-10T00:28:48;18.30;99.90
2202;DHT22;1107;48.654;9.250;2023-06-10T00:31:15;18.30;99.90
2202;DHT22;1107;48.654;9.250;2023-06-10T00:33:42;18.40;99.90
2202;DHT22;1107;48.654;9.250;2023-06-10T00:36:11;18.40;99.90
2202;DHT22;1107;48.654;9.250;2023-06-10T00:38:38;18.40;99.90
2202;DHT22;1107;48.654;9.250;2023-06-10T00:41:06;18.40;99.90
2202;DHT22;1107;48.654;9.250;2023-06-10T00:43:33;18.30;99.90
2202;DHT22;1107;48.654;9.250;2023-06-10T00:46:00;18.30;99.90
2202;DHT22;1107;48.654;9.250;2023-06-10T00:48:27;18.20;99.90
2202;DHT22;1107;48.654;9.250;2023-06-10T00:50:55;18.20;99.90
2202;DHT22;1107;48.654;9.250;2023-06-10T00:53:23;18.20;99.90
2202;DHT22;1107;48.654;9.250;2023-06-10T00:55:51;18.20;99.90
2202;DHT22;1107;48.654;9.250;2023-06-10T00:58:18;18.10;99.90
2202;DHT22;1107;48.654;9.250;2023-06-10T01:00:45;18.10;99.90
2202;DHT22;1107;48.654;9.250;2023-06-10T01:03:12;18.00;99.90
2202;DHT22;1107;48.654;9.250;2023-06-10T01:05:40;17.90;99.90
2202;DHT22;1107;48.654;9.250;2023-06-10T01:08:12;17.90;99.90
2202;DHT22;1107;48.654;9.250;2023-06-10T01:10:49;17.90;99.90
2202;DHT22;1107;48.654;9.250;2023-06-10T01:13:17;17.90;99.90
2202;DHT22;1107;48.654;9.250;2023-06-10T01:15:46;17.80;99.90
2202;DHT22;1107;48.654;9.250;2023-06-10T01:18:13;17.80;99.90
2202;DHT22;1107;48.654;9.250;2023-06-10T01:20:43;17.70;1.00
2202;DHT22;1107;48.654;9.250;2023-06-10T01:23:14;17.70;1.00
2202;DHT22;1107;48.654;9.250;2023-06-10T01:25:43;17.70;1.00
2202;DHT22;1107;48.654;9.250;2023-06-10T01:28:14;17.70;1.00
2202;DHT22;1107;48.654;9.250;2023-06-10T01:30:48;17.70;1.00
2202;DHT22;1107;48.654;9.250;2023-06-10T01:33:18;17.60;1.00
2202;DHT22;1107;48.654;9.250;2023-06-10T01:35:48;17.60;1.00
2202;DHT22;1107;48.654;9.250;2023-06-10T01:38:19;17.70;1.00
2202;DHT22;1107;48.654;9.250;2023-06-10T01:40:48;17.70;1.00
2202;DHT22;1107;48.654;9.250;2023-06-10T01:43:16;17.70;1.00
2202;DHT22;1107;48.654;9.250;2023-06-10T01:45:43;17.70;1.00
2202;DHT22;1107;48.654;9.250;2023-06-10T01:48:10;17.70;1.00
2202;DHT22;1107;48.654;9.250;2023-06-10T01:50:37;17.70;1.00
2202;DHT22;1107;48.654;9.250;2023-06-10T01:53:04;17.70;1.00
2202;DHT22;1107;48.654;9.250;2023-06-10T01:55:33;17.70;1.00
2202;DHT22;1107;48.654;9.250;2023-06-10T01:58:00;17.70;1.00
2202;DHT22;1107;48.654;9.250;2023-06-10T02:00:27;17.80;1.00
2202;DHT22;1107;48.654;9.250;2023-06-10T02:02:54;17.80;1.00
2202;DHT22;1107;48.654;9.250;2023-06-10T02:05:21;17.80;1.00
2202;DHT22;1107;48.654;9.250;2023-06-10T02:07:48;17.80;1.00
2202;DHT22;1107;48.654;9.250;2023-06-10T02:10:15;17.80;1.00
2202;DHT22;1107;48.654;9.250;2023-06-10T02:12:44;17.70;1.00
2202;DHT22;1107;48.654;9.250;2023-06-10T02:15:11;17.60;1.00
2202;DHT22;1107;48.654;9.250;2023-06-10T02:17:38;17.50;1.00
2202;DHT22;1107;48.654;9.250;2023-06-10T02:20:06;17.50;1.00
2202;DHT22;1107;48.654;9.250;2023-06-10T02:22:36;17.40;1.00
2202;DHT22;1107;48.654;9.250;2023-06-10T02:25:04;17.40;1.00
2202;DHT22;1107;48.654;9.250;2023-06-10T02:27:32;17.30;1.00
2202;DHT22;1107;48.654;9.250;2023-06-10T02:30:00;17.30;1.00
2202;DHT22;1107;48.654;9.250;2023-06-10T02:32:27;17.20;1.00
2202;DHT22;1107;48.654;9.250;2023-06-10T02:34:55;17.30;1.00
2202;DHT22;1107;48.654;9.250;2023-06-10T02:37:23;17.30;1.00
2202;DHT22;1107;48.654;9.250;2023-06-10T02:39:50;17.20;1.00
2202;DHT22;1107;48.654;9.250;2023-06-10T02:42:17;17.20;1.00
2202;DHT22;1107;48.654;9.250;2023-06-10T02:44:44;17.20;1.00
2202;DHT22;1107;48.654;9.250;2023-06-10T02:47:13;17.10;1.00
2202;DHT22;1107;48.654;9.250;2023-06-10T02:49:40;17.10;1.00
2202;DHT22;1107;48.654;9.250;2023-06-10T02:52:07;17.10;1.00
2202;DHT22;1107;48.654;9.250;2023-06-10T02:54:34;17.00;1.00
2202;DHT22;1107;48.654;9.250;2023-06-10T02:57:02;16.90;1.00
2202;DHT22;1107;48.654;9.250;2023-06-10T02:59:29;16.70;1.00
2202;DHT22;1107;48.654;9.250;2023-06-10T03:01:56;16.70;1.00
2202;DHT22;1107;48.654;9.250;2023-06-10T03:04:26;16.80;1.00
2202;DHT22;1107;48.654;9.250;2023-06-10T03:06:55;16.70;1.00
2202;DHT22;1107;48.654;9.250;2023-06-10T03:09:22;16.70;1.00
2202;DHT22;1107;48.654;9.250;2023-06-10T03:11:49;16.80;1.00
2202;DHT22;1107;48.654;9.250;2023-06-10T03:14:16;16.90;1.00
2202;DHT22;1107;48.654;9.250;2023-06-10T03:16:43;17.00;1.00
2202;DHT22;1107;48.654;9.250;2023-06-10T03:19:11;17.10;1.00
2202;DHT22;1107;48.654;9.250;2023-06-10T03:21:43;17.10;1.00
2202;DHT22;1107;48.654;9.250;2023-06-10T03:24:10;17.10;1.00
2202;DHT22;1107;48.654;9.250;2023-06-10T03:26:38;17.10;1.00
2202;DHT22;1107;48.654;9.250;2023-06-10T03:29:05;17.10;1.00
2202;DHT22;1107;48.654;9.250;2023-06-10T03:31:31;17.10;1.00
2202;DHT22;1107;48.654;9.250;2023-06-10T03:33:58;17.10;1.00
2202;DHT22;1107;48.654;9.250;2023-06-10T03:36:25;17.10;1.00
2202;DHT22;1107;48.654;9.250;2023-06-10T03:38:55;17.10;1.00
2202;DHT22;1107;48.654;9.250;2023-06-10T03:41:23;17.10;1.00
2202;DHT22;1107;48.654;9.250;2023-06-10T03:43:51;17.10;1.00
2202;DHT22;1107;48.654;9.250;2023-06-10T03:46:18;17.10;1.00
2202;DHT22;1107;48.654;9.250;2023-06-10T03:48:45;17.10;1.00
2202;DHT22;1107;48.654;9.250;2023-06-10T03:51:12;17.00;1.00
2202;DHT22;1107;48.654;9.250;2023-06-10T03:53:39;16.80;1.00
2202;DHT22;1107;48.654;9.250;2023-06-10T03:56:07;16.70;1.00
2202;DHT22;1107;48.654;9.250;2023-06-10T03:58:34;16.70;1.00
2202;DHT22;1107;48.654;9.250;2023-06-10T04:01:01;16.70;1.00
2202;DHT22;1107;48.654;9.250;2023-06-10T04:03:28;16.80;1.00
2202;DHT22;1107;48.654;9.250;2023-06-10T04:05:54;16.90;1.00
2202;DHT22;1107;48.654;9.250;2023-06-10T04:08:21;17.10;1.00
2202;DHT22;1107;48.654;9.250;2023-06-10T04:10:48;17.20;1.00
2202;DHT22;1107;48.654;9.250;2023-06-10T04:13:17;17.30;1.00
2202;DHT22;1107;48.654;9.250;2023-06-10T04:15:45;17.50;1.00
2202;DHT22;1107;48.654;9.250;2023-06-10T04:18:12;17.60;1.00
2202;DHT22;1107;48.654;9.250;2023-06-10T04:20:39;17.80;1.00
2202;DHT22;1107;48.654;9.250;2023-06-10T04:23:06;17.90;1.00
2202;DHT22;1107;48.654;9.250;2023-06-10T04:25:33;18.10;1.00
2202;DHT22;1107;48.654;9.250;2023-06-10T04:28:00;18.20;1.00
2202;DHT22;1107;48.654;9.250;2023-06-10T04:30:28;18.30;1.00
2202;DHT22;1107;48.654;9.250;2023-06-10T04:32:56;18.40;1.00
2202;DHT22;1107;48.654;9.250;2023-06-10T04:35:23;18.50;1.00
2202;DHT22;1107;48.654;9.250;2023-06-10T04:37:52;18.60;1.00
2202;DHT22;1107;48.654;9.250;2023-06-10T04:40:19;18.70;1.00
2202;DHT22;1107;48.654;9.250;2023-06-10T04:42:46;18.80;1.00
2202;DHT22;1107;48.654;9.250;2023-06-10T04:45:13;19.00;1.00
2202;DHT22;1107;48.654;9.250;2023-06-10T04:47:41;19.10;1.00
2202;DHT22;1107;48.654;9.250;2023-06-10T04:50:09;19.20;1.00
2202;DHT22;1107;48.654;9.250;2023-06-10T04:52:36;19.30;1.00
2202;DHT22;1107;48.654;9.250;2023-06-10T04:55:04;19.40;1.00
2202;DHT22;1107;48.654;9.250;2023-06-10T04:57:31;19.50;1.00
2202;DHT22;1107;48.654;9.250;2023-06-10T04:59:58;19.60;1.00
2202;DHT22;1107;48.654;9.250;2023-06-10T05:02:25;19.70;1.00
2202;DHT22;1107;48.654;9.250;2023-06-10T05:04:53;19.80;1.00
2202;DHT22;1107;48.654;9.250;2023-06-10T05:07:20;19.90;1.00
2202;DHT22;1107;48.654;9.250;2023-06-10T05:09:47;20.10;1.00
2202;DHT22;1107;48.654;9.250;2023-06-10T05:12:14;20.20;1.00
2202;DHT22;1107;48.654;9.250;2023-06-10T05:14:41;20.30;1.00
2202;DHT22;1107;48.654;9.250;2023-06-10T05:17:08;20.30;1.00
2202;DHT22;1107;48.654;9.250;2023-06-10T05:19:35;20.40;1.00
2202;DHT22;1107;48.654;9.250;2023-06-10T05:22:04;20.60;1.00
2202;DHT22;1107;48.654;9.250;2023-06-10T05:24:31;20.70;1.00
2202;DHT22;1107;48.654;9.250;2023-06-10T05:26:58;20.80;1.00
2202;DHT22;1107;48.654;9.250;2023-06-10T05:29:25;21.00;99.90
2202;DHT22;1107;48.654;9.250;2023-06-10T05:31:52;21.00;99.90
2202;DHT22;1107;48.654;9.250;2023-06-10T05:34:22;21.10;99.90
2202;DHT22;1107;48.654;9.250;2023-06-10T05:36:49;21.20;99.90
2202;DHT22;1107;48.654;9.250;2023-06-10T05:39:17;21.20;99.90
2202;DHT22;1107;48.654;9.250;2023-06-10T05:41:44;21.40;99.90
2202;DHT22;1107;48.654;9.250;2023-06-10T05:44:11;21.60;99.90
2202;DHT22;1107;48.654;9.250;2023-06-10T05:46:38;21.70;99.90
2202;DHT22;1107;48.654;9.250;2023-06-10T05:49:05;21.90;99.90
2202;DHT22;1107;48.654;9.250;2023-06-10T05:51:32;22.00;99.90
2202;DHT22;1107;48.654;9.250;2023-06-10T05:53:58;22.10;99.90
2202;DHT22;1107;48.654;9.250;2023-06-10T05:56:27;22.10;99.90
2202;DHT22;1107;48.654;9.250;2023-06-10T05:58:54;22.20;99.90
2202;DHT22;1107;48.654;9.250;2023-06-10T06:01:21;22.40;99.90
2202;DHT22;1107;48.654;9.250;2023-06-10T06:03:47;22.60;99.90
2202;DHT22;1107;48.654;9.250;2023-06-10T06:06:14;22.80;99.90
2202;DHT22;1107;48.654;9.250;2023-06-10T06:08:41;23.00;99.90
2202;DHT22;1107;48.654;9.250;2023-06-10T06:11:09;23.10;99.90
2202;DHT22;1107;48.654;9.250;2023-06-10T06:13:37;23.40;99.90
2202;DHT22;1107;48.654;9.250;2023-06-10T06:16:04;23.50;99.90
2202;DHT22;1107;48.654;9.250;2023-06-10T06:18:31;23.60;99.90
2202;DHT22;1107;48.654;9.250;2023-06-10T06:20:58;23.80;99.90
2202;DHT22;1107;48.654;9.250;2023-06-10T06:23:25;23.90;99.90
2202;DHT22;1107;48.654;9.250;2023-06-10T06:25:52;24.00;99.90
2202;DHT22;1107;48.654;9.250;2023-06-10T06:28:18;24.30;99.90
2202;DHT22;1107;48.654;9.250;2023-06-10T06:30:48;24.20;99.90
2202;DHT22;1107;48.654;9.250;2023-06-10T06:33:14;24.40;99.90
2202;DHT22;1107;48.654;9.250;2023-06-10T06:35:42;24.60;99.90
2202;DHT22;1107;48.654;9.250;2023-06-10T06:38:08;24.80;99.90
2202;DHT22;1107;48.654;9.250;2023-06-10T06:40:35;25.10;99.90
2202;DHT22;1107;48.654;9.250;2023-06-10T06:43:02;25.30;99.90
2202;DHT22;1107;48.654;9.250;2023-06-10T06:45:29;25.40;99.90
2202;DHT22;1107;48.654;9.250;2023-06-10T06:47:57;25.40;99.90
2202;DHT22;1107;48.654;9.250;2023-06-10T06:50:25;25.50;99.90
2202;DHT22;1107;48.654;9.250;2023-06-10T06:52:51;25.60;99.90
2202;DHT22;1107;48.654;9.250;2023-06-10T06:55:19;25.90;99.90
2202;DHT22;1107;48.654;9.250;2023-06-10T06:57:45;26.00;99.90
2202;DHT22;1107;48.654;9.250;2023-06-10T07:00:13;26.20;99.90
2202;DHT22;1107;48.654;9.250;2023-06-10T07:02:40;26.60;99.90
2202;DHT22;1107;48.654;9.250;2023-06-10T07:05:08;26.90;99.90
2202;DHT22;1107;48.654;9.250;2023-06-10T07:07:35;27.00;99.90
2202;DHT22;1107;48.654;9.250;2023-06-10T07:10:02;27.00;99.90
2202;DHT22;1107;48.654;9.250;2023-06-10T07:12:29;27.00;99.90
2202;DHT22;1107;48.654;9.250;2023-06-10T07:14:56;26.80;99.90
2202;DHT22;1107;48.654;9.250;2023-06-10T07:17:23;27.10;99.90
2202;DHT22;1107;48.654;9.250;2023-06-10T07:19:50;27.10;99.90
2202;DHT22;1107;48.654;9.250;2023-06-10T07:22:19;27.20;99.90
2202;DHT22;1107;48.654;9.250;2023-06-10T07:24:46;27.30;99.90
2202;DHT22;1107;48.654;9.250;2023-06-10T07:27:13;27.40;99.90
2202;DHT22;1107;48.654;9.250;2023-06-10T07:29:39;27.70;99.90
2202;DHT22;1107;48.654;9.250;2023-06-10T07:32:07;27.80;99.90
2202;DHT22;1107;48.654;9.250;2023-06-10T07:34:34;28.10;99.90
2202;DHT22;1107;48.654;9.250;2023-06-10T07:37:01;28.10;99.90
2202;DHT22;1107;48.654;9.250;2023-06-10T07:39:29;28.30;99.90
2202;DHT22;1107;48.654;9.250;2023-06-10T07:41:56;28.20;99.90
2202;DHT22;1107;48.654;9.250;2023-06-10T07:44:24;28.10;99.90
2202;DHT22;1107;48.654;9.250;2023-06-10T07:46:50;28.20;99.90
2202;DHT22;1107;48.654;9.250;2023-06-10T07:49:17;28.30;99.90
2202;DHT22;1107;48.654;9.250;2023-06-10T07:51:44;28.30;99.90
2202;DHT22;1107;48.654;9.250;2023-06-10T07:54:11;28.30;99.90
2202;DHT22;1107;48.654;9.250;2023-06-10T07:56:40;28.40;99.90
2202;DHT22;1107;48.654;9.250;2023-06-10T07:59:07;28.70;99.90
2202;DHT22;1107;48.654;9.250;2023-06-10T08:01:34;28.90;99.90
2202;DHT22;1107;48.654;9.250;2023-06-10T08:04:04;29.00;99.90
2202;DHT22;1107;48.654;9.250;2023-06-10T08:06:30;29.30;99.90
2202;DHT22;1107;48.654;9.250;2023-06-10T08:08:57;29.50;99.90
2202;DHT22;1107;48.654;9.250;2023-06-10T08:11:25;29.60;99.90
2202;DHT22;1107;48.654;9.250;2023-06-10T08:13:55;29.60;99.90
2202;DHT22;1107;48.654;9.250;2023-06-10T08:16:22;29.70;99.90
2202;DHT22;1107;48.654;9.250;2023-06-10T08:18:49;30.00;99.90
2202;DHT22;1107;48.654;9.250;2023-06-10T08:21:17;30.20;99.90
2202;DHT22;1107;48.654;9.250;2023-06-10T08:23:43;30.50;99.90
2202;DHT22;1107;48.654;9.250;2023-06-10T08:26:11;30.80;99.90
2202;DHT22;1107;48.654;9.250;2023-06-10T08:28:38;31.00;99.90
2202;DHT22;1107;48.654;9.250;2023-06-10T08:31:06;31.20;99.90
2202;DHT22;1107;48.654;9.250;2023-06-10T08:33:33;31.40;99.90
2202;DHT22;1107;48.654;9.250;2023-06-10T08:36:00;31.30;99.90
2202;DHT22;1107;48.654;9.250;2023-06-10T08:38:27;31.60;99.90
2202;DHT22;1107;48.654;9.250;2023-06-10T08:40:56;31.70;98.00
2202;DHT22;1107;48.654;9.250;2023-06-10T08:43:33;31.90;95.70
2202;DHT22;1107;48.654;9.250;2023-06-10T08:46:01;32.20;94.30
2202;DHT22;1107;48.654;9.250;2023-06-10T08:48:30;32.10;91.00
2202;DHT22;1107;48.654;9.250;2023-06-10T08:51:01;31.70;80.60
2202;DHT22;1107;48.654;9.250;2023-06-10T08:53:31;31.90;82.70
2202;DHT22;1107;48.654;9.250;2023-06-10T08:56:03;32.30;81.80
2202;DHT22;1107;48.654;9.250;2023-06-10T08:58:32;32.10;78.90
2202;DHT22;1107;48.654;9.250;2023-06-10T09:01:01;31.90;71.60
2202;DHT22;1107;48.654;9.250;2023-06-10T09:03:29;31.80;69.50
2202;DHT22;1107;48.654;9.250;2023-06-10T09:05:57;32.30;71.20
2202;DHT22;1107;48.654;9.250;2023-06-10T09:08:24;32.00;63.20
2202;DHT22;1107;48.654;9.250;2023-06-10T09:10:51;31.90;59.90
2202;DHT22;1107;48.654;9.250;2023-06-10T09:13:19;32.10;60.00
2202;DHT22;1107;48.654;9.250;2023-06-10T09:15:46;32.10;57.80
2202;DHT22;1107;48.654;9.250;2023-06-10T09:18:14;32.30;57.70
2202;DHT22;1107;48.654;9.250;2023-06-10T09:20:43;32.30;54.70
2202;DHT22;1107;48.654;9.250;2023-06-10T09:23:10;32.40;54.30
2202;DHT22;1107;48.654;9.250;2023-06-10T09:25:38;33.00;53.90
2202;DHT22;1107;48.654;9.250;2023-06-10T09:28:13;33.00;52.40
2202;DHT22;1107;48.654;9.250;2023-06-10T09:30:40;32.70;49.40
2202;DHT22;1107;48.654;9.250;2023-06-10T09:33:11;32.30;44.40
2202;DHT22;1107;48.654;9.250;2023-06-10T09:35:46;31.80;42.50
2202;DHT22;1107;48.654;9.250;2023-06-10T09:38:14;31.70;42.30
2202;DHT22;1107;48.654;9.250;2023-06-10T09:40:49;31.90;44.50
2202;DHT22;1107;48.654;9.250;2023-06-10T09:43:16;32.10;43.20
2202;DHT22;1107;48.654;9.250;2023-06-10T09:45:44;32.40;43.60
2202;DHT22;1107;48.654;9.250;2023-06-10T09:48:10;32.10;41.20
2202;DHT22;1107;48.654;9.250;2023-06-10T09:50:42;32.10;40.50
2202;DHT22;1107;48.654;9.250;2023-06-10T09:53:11;31.90;40.20
2202;DHT22;1107;48.654;9.250;2023-06-10T09:55:38;31.90;37.40
2202;DHT22;1107;48.654;9.250;2023-06-10T09:58:05;32.10;37.60
2202;DHT22;1107;48.654;9.250;2023-06-10T10:00:33;32.20;37.30
2202;DHT22;1107;48.654;9.250;2023-06-10T10:03:01;32.20;37.50
2202;DHT22;1107;48.654;9.250;2023-06-10T10:05:29;32.30;36.00
2202;DHT22;1107;48.654;9.250;2023-06-10T10:07:56;32.20;38.20
2202;DHT22;1107;48.654;9.250;2023-06-10T10:10:24;32.10;33.20
2202;DHT22;1107;48.654;9.250;2023-06-10T10:12:54;31.70;30.80
2202;DHT22;1107;48.654;9.250;2023-06-10T10:15:24;31.80;33.30
2202;DHT22;1107;48.654;9.250;2023-06-10T10:17:59;31.00;28.30
2202;DHT22;1107;48.654;9.250;2023-06-10T10:20:31;30.80;28.70
2202;DHT22;1107;48.654;9.250;2023-06-10T10:23:03;30.60;27.60
2202;DHT22;1107;48.654;9.250;2023-06-10T10:25:35;30.70;27.10
2202;DHT22;1107;48.654;9.250;2023-06-10T10:28:07;30.70;28.00
2202;DHT22;1107;48.654;9.250;2023-06-10T10:30:40;29.70;23.40
2202;DHT22;1107;48.654;9.250;2023-06-10T10:33:12;29.70;24.40
2202;DHT22;1107;48.654;9.250;2023-06-10T10:35:39;29.80;25.20
2202;DHT22;1107;48.654;9.250;2023-06-10T10:38:07;30.30;28.40
2202;DHT22;1107;48.654;9.250;2023-06-10T10:40:37;30.80;29.70
2202;DHT22;1107;48.654;9.250;2023-06-10T10:43:05;31.00;30.10
2202;DHT22;1107;48.654;9.250;2023-06-10T10:45:33;31.30;31.40
2202;DHT22;1107;48.654;9.250;2023-06-10T10:48:07;31.00;30.10
2202;DHT22;1107;48.654;9.250;2023-06-10T10:50:37;30.80;31.80
2202;DHT22;1107;48.654;9.250;2023-06-10T10:53:05;31.30;34.90
2202;DHT22;1107;48.654;9.250;2023-06-10T10:55:33;31.50;35.50
2202;DHT22;1107;48.654;9.250;2023-06-10T10:58:03;31.40;34.00
2202;DHT22;1107;48.654;9.250;2023-06-10T11:00:31;30.50;30.00
2202;DHT22;1107;48.654;9.250;2023-06-10T11:03:03;30.30;29.70
2202;DHT22;1107;48.654;9.250;2023-06-10T11:05:35;30.30;29.80
2202;DHT22;1107;48.654;9.250;2023-06-10T11:08:03;29.60;25.80
2202;DHT22;1107;48.654;9.250;2023-06-10T11:10:30;28.90;22.80
2202;DHT22;1107;48.654;9.250;2023-06-10T11:12:58;28.90;24.10
2202;DHT22;1107;48.654;9.250;2023-06-10T11:15:28;28.80;24.70
2202;DHT22;1107;48.654;9.250;2023-06-10T11:18:21;29.10;26.30
2202;DHT22;1107;48.654;9.250;2023-06-10T11:20:57;28.70;24.30
2202;DHT22;1107;48.654;9.250;2023-06-10T11:23:41;28.40;21.40
2202;DHT22;1107;48.654;9.250;2023-06-10T11:26:13;28.50;22.30
2202;DHT22;1107;48.654;9.250;2023-06-10T11:28:41;29.30;25.40
2202;DHT22;1107;48.654;9.250;2023-06-10T11:31:19;29.80;26.10
2202;DHT22;1107;48.654;9.250;2023-06-10T11:33:47;30.10;25.10
2202;DHT22;1107;48.654;9.250;2023-06-10T11:36:14;30.70;27.10
2202;DHT22;1107;48.654;9.250;2023-06-10T11:38:42;30.40;23.00
2202;DHT22;1107;48.654;9.250;2023-06-10T11:41:11;30.00;22.30
2202;DHT22;1107;48.654;9.250;2023-06-10T11:43:42;30.20;21.00
2202;DHT22;1107;48.654;9.250;2023-06-10T11:46:11;30.90;24.10
2202;DHT22;1107;48.654;9.250;2023-06-10T11:48:38;31.30;24.70
2202;DHT22;1107;48.654;9.250;2023-06-10T11:51:06;31.60;24.80
2202;DHT22;1107;48.654;9.250;2023-06-10T11:53:33;31.50;23.40
2202;DHT22;1107;48.654;9.250;2023-06-10T11:56:00;31.30;22.80
2202;DHT22;1107;48.654;9.250;2023-06-10T11:58:27;31.20;22.10
2202;DHT22;1107;48.654;9.250;2023-06-10T12:00:55;30.70;18.10
2202;DHT22;1107;48.654;9.250;2023-06-10T12:03:25;30.00;14.50
2202;DHT22;1107;48.654;9.250;2023-06-10T12:05:59;29.70;16.30
2202;DHT22;1107;48.654;9.250;2023-06-10T12:08:27;29.40;14.70
2202;DHT22;1107;48.654;9.250;2023-06-10T12:10:54;30.10;17.30
2202;DHT22;1107;48.654;9.250;2023-06-10T12:13:22;30.40;17.70
2202;DHT22;1107;48.654;9.250;2023-06-10T12:15:49;30.40;17.40
2202;DHT22;1107;48.654;9.250;2023-06-10T12:18:17;30.70;17.70
2202;DHT22;1107;48.654;9.250;2023-06-10T12:20:45;31.00;18.90
2202;DHT22;1107;48.654;9.250;2023-06-10T12:23:14;31.10;18.50
2202;DHT22;1107;48.654;9.250;2023-06-10T12:25:50;31.20;17.40
2202;DHT22;1107;48.654;9.250;2023-06-10T12:28:21;31.10;16.10
2202;DHT22;1107;48.654;9.250;2023-06-10T12:30:48;31.10;16.90
2202;DHT22;1107;48.654;9.250;2023-06-10T12:33:18;31.20;17.90
2202;DHT22;1107;48.654;9.250;2023-06-10T12:35:51;31.30;18.00
2202;DHT22;1107;48.654;9.250;2023-06-10T12:38:21;31.40;16.90
2202;DHT22;1107;48.654;9.250;2023-06-10T12:40:50;31.30;15.80
2202;DHT22;1107;48.654;9.250;2023-06-10T12:43:20;31.40;16.20
2202;DHT22;1107;48.654;9.250;2023-06-10T12:45:47;31.80;17.20
2202;DHT22;1107;48.654;9.250;2023-06-10T12:48:18;31.70;14.80
2202;DHT22;1107;48.654;9.250;2023-06-10T12:50:52;31.00;11.10
2202;DHT22;1107;48.654;9.250;2023-06-10T12:53:20;31.20;16.00
2202;DHT22;1107;48.654;9.250;2023-06-10T12:55:48;31.20;17.70
2202;DHT22;1107;48.654;9.250;2023-06-10T12:58:16;30.60;14.70
2202;DHT22;1107;48.654;9.250;2023-06-10T13:00:43;29.90;15.20
2202;DHT22;1107;48.654;9.250;2023-06-10T13:03:10;29.30;10.80
2202;DHT22;1107;48.654;9.250;2023-06-10T13:05:38;29.10;11.10
2202;DHT22;1107;48.654;9.250;2023-06-10T13:08:06;28.90;11.00
2202;DHT22;1107;48.654;9.250;2023-06-10T13:10:36;28.80;11.50
2202;DHT22;1107;48.654;9.250;2023-06-10T13:13:03;29.00;15.20
2202;DHT22;1107;48.654;9.250;2023-06-10T13:15:31;29.80;21.50
2202;DHT22;1107;48.654;9.250;2023-06-10T13:18:01;30.80;25.40
2202;DHT22;1107;48.654;9.250;2023-06-10T13:20:29;30.70;21.20
2202;DHT22;1107;48.654;9.250;2023-06-10T13:22:56;30.30;18.00
2202;DHT22;1107;48.654;9.250;2023-06-10T13:25:24;30.50;17.90
2202;DHT22;1107;48.654;9.250;2023-06-10T13:27:51;30.20;14.90
2202;DHT22;1107;48.654;9.250;2023-06-10T13:30:18;30.00;13.10
2202;DHT22;1107;48.654;9.250;2023-06-10T13:32:45;29.90;11.80
2202;DHT22;1107;48.654;9.250;2023-06-10T13:35:12;29.40;9.20
2202;DHT22;1107;48.654;9.250;2023-06-10T13:37:39;29.00;6.90
2202;DHT22;1107;48.654;9.250;2023-06-10T13:40:07;28.60;5.50
2202;DHT22;1107;48.654;9.250;2023-06-10T13:42:36;28.80;6.40
2202;DHT22;1107;48.654;9.250;2023-06-10T13:45:04;29.10;8.60
2202;DHT22;1107;48.654;9.250;2023-06-10T13:47:31;29.60;9.00
2202;DHT22;1107;48.654;9.250;2023-06-10T13:49:58;30.00;10.40
2202;DHT22;1107;48.654;9.250;2023-06-10T13:52:25;30.30;12.30
2202;DHT22;1107;48.654;9.250;2023-06-10T13:54:52;30.70;13.60
2202;DHT22;1107;48.654;9.250;2023-06-10T13:57:19;30.80;14.80
2202;DHT22;1107;48.654;9.250;2023-06-10T13:59:47;30.90;14.90
2202;DHT22;1107;48.654;9.250;2023-06-10T14:02:14;30.90;14.80
2202;DHT22;1107;48.654;9.250;2023-06-10T14:04:41;31.00;15.60
2202;DHT22;1107;48.654;9.250;2023-06-10T14:07:08;31.00;16.20
2202;DHT22;1107;48.654;9.250;2023-06-10T14:09:35;30.80;14.50
2202;DHT22;1107;48.654;9.250;2023-06-10T14:12:02;30.90;15.50
2202;DHT22;1107;48.654;9.250;2023-06-10T14:14:30;30.40;13.30
2202;DHT22;1107;48.654;9.250;2023-06-10T14:17:00;30.40;12.70
2202;DHT22;1107;48.654;9.250;2023-06-10T14:19:27;30.30;10.50
2202;DHT22;1107;48.654;9.250;2023-06-10T14:21:54;30.20;10.40
2202;DHT22;1107;48.654;9.250;2023-06-10T14:24:21;30.00;10.80
2202;DHT22;1107;48.654;9.250;2023-06-10T14:26:48;30.00;8.90
2202;DHT22;1107;48.654;9.250;2023-06-10T14:29:15;29.90;8.50
2202;DHT22;1107;48.654;9.250;2023-06-10T14:31:43;30.10;10.80
2202;DHT22;1107;48.654;9.250;2023-06-10T14:34:12;30.40;14.20
2202;DHT22;1107;48.654;9.250;2023-06-10T14:36:38;30.50;13.90
2202;DHT22;1107;48.654;9.250;2023-06-10T14:39:05;30.70;15.40
2202;DHT22;1107;48.654;9.250;2023-06-10T14:41:32;30.70;13.50
2202;DHT22;1107;48.654;9.250;2023-06-10T14:43:59;30.50;13.00
2202;DHT22;1107;48.654;9.250;2023-06-10T14:46:26;30.40;11.60
2202;DHT22;1107;48.654;9.250;2023-06-10T14:48:53;29.90;8.70
2202;DHT22;1107;48.654;9.250;2023-06-10T14:51:21;29.20;5.70
2202;DHT22;1107;48.654;9.250;2023-06-10T14:53:48;28.70;4.40
2202;DHT22;1107;48.654;9.250;2023-06-10T14:56:16;28.30;6.70
2202;DHT22;1107;48.654;9.250;2023-06-10T14:58:43;28.40;6.60
2202;DHT22;1107;48.654;9.250;2023-06-10T15:01:10;28.60;6.50
2202;DHT22;1107;48.654;9.250;2023-06-10T15:03:37;28.80;7.40
2202;DHT22;1107;48.654;9.250;2023-06-10T15:06:03;28.80;6.50
2202;DHT22;1107;48.654;9.250;2023-06-10T15:08:32;28.80;7.70
2202;DHT22;1107;48.654;9.250;2023-06-10T15:10:59;28.90;8.90
2202;DHT22;1107;48.654;9.250;2023-06-10T15:13:26;29.00;9.70
2202;DHT22;1107;48.654;9.250;2023-06-10T15:15:53;29.30;13.70
2202;DHT22;1107;48.654;9.250;2023-06-10T15:18:21;29.40;14.40
2202;DHT22;1107;48.654;9.250;2023-06-10T15:20:48;29.60;14.40
2202;DHT22;1107;48.654;9.250;2023-06-10T15:23:15;29.40;13.60
2202;DHT22;1107;48.654;9.250;2023-06-10T15:25:44;28.80;10.40
2202;DHT22;1107;48.654;9.250;2023-06-10T15:28:12;28.20;6.80
2202;DHT22;1107;48.654;9.250;2023-06-10T15:30:39;27.90;6.70
2202;DHT22;1107;48.654;9.250;2023-06-10T15:33:06;27.60;6.60
2202;DHT22;1107;48.654;9.250;2023-06-10T15:35:32;27.30;7.50
2202;DHT22;1107;48.654;9.250;2023-06-10T15:37:59;27.20;6.30
2202;DHT22;1107;48.654;9.250;2023-06-10T15:40:26;27.10;6.30
2202;DHT22;1107;48.654;9.250;2023-06-10T15:42:55;27.00;6.20
2202;DHT22;1107;48.654;9.250;2023-06-10T15:45:22;27.00;7.20
2202;DHT22;1107;48.654;9.250;2023-06-10T15:47:49;27.30;9.40
2202;DHT22;1107;48.654;9.250;2023-06-10T15:50:16;27.60;9.60
2202;DHT22;1107;48.654;9.250;2023-06-10T15:52:43;27.70;10.90
2202;DHT22;1107;48.654;9.250;2023-06-10T15:55:10;27.70;11.90
2202;DHT22;1107;48.654;9.250;2023-06-10T15:57:38;27.60;24.80
2202;DHT22;1107;48.654;9.250;2023-06-10T16:00:07;27.70;13.50
2202;DHT22;1107;48.654;9.250;2023-06-10T16:02:34;27.80;11.80
2202;DHT22;1107;48.654;9.250;2023-06-10T16:05:01;27.80;11.90
2202;DHT22;1107;48.654;9.250;2023-06-10T16:07:29;27.70;9.10
2202;DHT22;1107;48.654;9.250;2023-06-10T16:09:56;27.80;10.90
2202;DHT22;1107;48.654;9.250;2023-06-10T16:12:23;27.80;9.90